Time,TemperatureF,DewpointF,PressureIn,WindDirection,WindDirectionDegrees,WindSpeedMPH,WindSpeedGustMPH,Humidity,HourlyPrecipIn,Conditions,Clouds,dailyrainin,SoftwareType,DateUTC
2013-05-25 00:00:00,43.1,40.0,30.04,NW,319,1.0,4.0,89,0.00,,,0.07,weatherlink.com 1.10,2013-05-25 04:00:00,
2013-05-25 00:15:00,43.1,40.0,30.04,NW,320,1.0,3.0,89,0.00,,,0.07,weatherlink.com 1.10,2013-05-25 04:15:00,
2013-05-25 00:30:00,43.2,40.0,30.03,NNW,336,0.0,3.0,88,0.00,,,0.07,weatherlink.com 1.10,2013-05-25 04:30:00,
2013-05-25 00:45:00,43.2,40.0,30.03,NW,319,1.0,3.0,88,0.00,,,0.07,weatherlink.com 1.10,2013-05-25 04:45:00,
2013-05-25 01:00:00,43.3,40.0,30.02,NW,317,0.0,3.0,87,0.00,,,0.07,weatherlink.com 1.10,2013-05-25 05:00:00,
2013-05-25 01:15:00,43.5,40.0,30.02,NW,322,0.0,2.0,86,0.00,,,0.07,weatherlink.com 1.10,2013-05-25 05:15:00,
2013-05-25 01:30:00,43.6,39.0,30.02,NNW,340,0.0,2.0,85,0.00,,,0.07,weatherlink.com 1.10,2013-05-25 05:30:00,
2013-05-25 01:45:00,43.6,39.0,30.02,NW,321,2.0,2.0,85,0.00,,,0.07,weatherlink.com 1.10,2013-05-25 05:45:00,
2013-05-25 02:00:00,43.7,39.0,30.01,SSE,148,2.0,2.0,84,0.00,,,0.07,weatherlink.com 1.10,2013-05-25 06:00:00,
2013-05-25 02:15:00,43.6,39.0,30.01,NW,321,0.0,2.0,84,0.00,,,0.00,weatherlink.com 1.10,2013-05-25 06:15:00,
2013-05-25 02:30:00,43.5,39.0,30.01,NW,307,0.0,3.0,84,0.00,,,0.00,weatherlink.com 1.10,2013-05-25 06:30:00,
2013-05-25 02:45:00,43.5,39.0,30.01,NW,317,1.0,1.0,84,0.00,,,0.00,weatherlink.com 1.10,2013-05-25 06:45:00,
2013-05-25 03:00:00,43.6,39.0,30.00,WNW,296,1.0,2.0,84,0.00,,,0.00,weatherlink.com 1.10,2013-05-25 07:00:00,
2013-05-25 03:15:00,43.6,38.0,30.01,NW,317,1.0,2.0,82,0.00,,,0.00,weatherlink.com 1.10,2013-05-25 07:15:00,
2013-05-25 03:30:00,43.6,39.0,30.01,NW,318,0.0,2.0,83,0.00,,,0.00,weatherlink.com 1.10,2013-05-25 07:30:00,
2013-05-25 03:45:00,43.4,38.0,30.01,NW,313,0.0,2.0,82,0.00,,,0.00,weatherlink.com 1.10,2013-05-25 07:45:00,
2013-05-25 04:00:00,43.3,38.0,30.01,West,275,0.0,2.0,82,0.00,,,0.00,weatherlink.com 1.10,2013-05-25 08:00:00,
2013-05-25 04:15:00,43.2,38.0,30.01,NW,309,1.0,2.0,83,0.00,,,0.00,weatherlink.com 1.10,2013-05-25 08:15:00,
2013-05-25 04:30:00,42.9,38.0,30.01,NW,313,1.0,3.0,82,0.00,,,0.00,weatherlink.com 1.10,2013-05-25 08:30:00,
2013-05-25 04:45:00,42.7,38.0,30.01,NW,325,1.0,2.0,83,0.00,,,0.00,weatherlink.com 1.10,2013-05-25 08:45:00,
2013-05-25 05:00:00,42.5,38.0,30.01,NNW,329,1.0,2.0,83,0.00,,,0.00,weatherlink.com 1.10,2013-05-25 09:00:00,
2013-05-25 05:16:00,42.5,38.0,30.00,WNW,282,1.0,3.0,83,0.00,,,0.00,weatherlink.com 1.10,2013-05-25 09:16:00,
2013-05-25 05:30:00,42.5,37.0,30.01,NW,304,2.0,3.0,81,0.00,,,0.00,weatherlink.com 1.10,2013-05-25 09:30:00,
2013-05-25 05:45:00,42.5,37.0,30.01,NNE,22,1.0,3.0,81,0.00,,,0.00,weatherlink.com 1.10,2013-05-25 09:45:00,
2013-05-25 06:00:00,42.5,37.0,30.02,WNW,283,1.0,3.0,81,0.00,,,0.00,weatherlink.com 1.10,2013-05-25 10:00:00,
2013-05-25 06:15:00,42.4,37.0,30.02,WNW,284,1.0,2.0,82,0.00,,,0.00,weatherlink.com 1.10,2013-05-25 10:15:00,
2013-05-25 06:30:00,42.5,37.0,30.02,NNW,348,1.0,3.0,80,0.00,,,0.00,weatherlink.com 1.10,2013-05-25 10:30:00,
2013-05-25 06:45:00,42.8,37.0,30.02,NW,312,0.0,3.0,80,0.00,,,0.00,weatherlink.com 1.10,2013-05-25 10:45:00,
2013-05-25 07:00:00,43.2,37.0,30.02,NNW,327,0.0,4.0,78,0.00,,,0.00,weatherlink.com 1.10,2013-05-25 11:00:00,
2013-05-25 07:15:00,43.6,37.0,30.02,WNW,300,1.0,4.0,77,0.00,,,0.00,weatherlink.com 1.10,2013-05-25 11:15:00,
2013-05-25 07:30:00,43.9,37.0,30.03,NNW,329,1.0,4.0,78,0.00,,,0.00,weatherlink.com 1.10,2013-05-25 11:30:00,
2013-05-25 07:45:00,44.4,38.0,30.03,NW,306,2.0,4.0,77,0.00,,,0.00,weatherlink.com 1.10,2013-05-25 11:45:00,
2013-05-25 08:00:00,45.1,37.0,30.03,NNW,341,2.0,4.0,74,0.00,,,0.00,weatherlink.com 1.10,2013-05-25 12:00:00,
2013-05-25 08:15:00,45.6,37.0,30.04,WNW,296,1.0,4.0,73,0.00,,,0.00,weatherlink.com 1.10,2013-05-25 12:15:00,
2013-05-25 08:30:00,46.3,38.0,30.04,NW,324,0.0,4.0,73,0.00,,,0.00,weatherlink.com 1.10,2013-05-25 12:30:00,
2013-05-25 08:45:00,47.0,38.0,30.04,NW,315,0.0,4.0,70,0.00,,,0.00,weatherlink.com 1.10,2013-05-25 12:45:00,
2013-05-25 09:01:00,47.9,38.0,30.04,NW,306,1.0,5.0,68,0.00,,,0.00,weatherlink.com 1.10,2013-05-25 13:01:00,
2013-05-25 09:16:00,49.1,38.0,30.04,WNW,292,2.0,4.0,67,0.00,,,0.00,weatherlink.com 1.10,2013-05-25 13:16:00,
2013-05-25 09:31:00,49.7,38.0,30.04,WNW,282,2.0,5.0,65,0.00,,,0.00,weatherlink.com 1.10,2013-05-25 13:31:00,
2013-05-25 09:46:00,50.3,37.0,30.04,NNW,338,1.0,8.0,60,0.00,,,0.00,weatherlink.com 1.10,2013-05-25 13:46:00,
2013-05-25 10:01:00,51.0,37.0,30.05,NNW,329,1.0,6.0,60,0.00,,,0.00,weatherlink.com 1.10,2013-05-25 14:01:00,
2013-05-25 10:16:00,51.6,38.0,30.05,East,85,1.0,5.0,60,0.00,,,0.00,weatherlink.com 1.10,2013-05-25 14:16:00,
2013-05-25 10:31:00,52.5,38.0,30.05,NNW,329,3.0,5.0,58,0.00,,,0.00,weatherlink.com 1.10,2013-05-25 14:31:00,
2013-05-25 10:46:00,53.0,37.0,30.05,NNW,343,3.0,4.0,55,0.00,,,0.00,weatherlink.com 1.10,2013-05-25 14:46:00,
2013-05-25 11:01:00,52.4,37.0,30.05,West,278,2.0,6.0,57,0.00,,,0.00,weatherlink.com 1.10,2013-05-25 15:01:00,
2013-05-25 11:16:00,52.6,38.0,30.05,NNE,21,1.0,5.0,57,0.00,,,0.00,weatherlink.com 1.10,2013-05-25 15:16:00,
2013-05-25 11:31:00,53.5,37.0,30.05,SE,133,1.0,6.0,54,0.00,,,0.00,weatherlink.com 1.10,2013-05-25 15:31:00,
2013-05-25 11:46:00,53.9,38.0,30.05,NNW,340,1.0,6.0,55,0.00,,,0.00,weatherlink.com 1.10,2013-05-25 15:46:00,
2013-05-25 12:01:00,54.1,37.0,30.05,NW,319,1.0,6.0,52,0.00,,,0.00,weatherlink.com 1.10,2013-05-25 16:01:00,
2013-05-25 12:16:00,54.9,38.0,30.05,WNW,290,3.0,6.0,54,0.00,,,0.00,weatherlink.com 1.10,2013-05-25 16:16:00,
2013-05-25 12:31:00,54.4,36.0,30.05,NNE,19,3.0,5.0,51,0.00,,,0.00,weatherlink.com 1.10,2013-05-25 16:31:00,
2013-05-25 12:46:00,56.2,37.0,30.05,WNW,303,2.0,6.0,48,0.00,,,0.00,weatherlink.com 1.10,2013-05-25 16:46:00,
2013-05-25 13:01:00,55.9,36.0,30.04,NNW,331,1.0,6.0,48,0.00,,,0.00,weatherlink.com 1.10,2013-05-25 17:01:00,
2013-05-25 13:16:00,56.9,38.0,30.04,NNE,31,2.0,5.0,49,0.00,,,0.00,weatherlink.com 1.10,2013-05-25 17:16:00,
2013-05-25 13:31:00,56.5,38.0,30.04,NW,304,1.0,6.0,50,0.00,,,0.00,weatherlink.com 1.10,2013-05-25 17:31:00,
2013-05-25 13:46:00,55.7,37.0,30.05,NNW,332,2.0,5.0,49,0.00,,,0.00,weatherlink.com 1.10,2013-05-25 17:46:00,
2013-05-25 14:01:00,55.9,36.0,30.04,WNW,300,2.0,5.0,47,0.00,,,0.00,weatherlink.com 1.10,2013-05-25 18:01:00,
2013-05-25 14:16:00,57.1,36.0,30.05,WNW,298,1.0,5.0,45,0.00,,,0.00,weatherlink.com 1.10,2013-05-25 18:16:00,
2013-05-25 14:31:00,57.0,35.0,30.04,East,84,1.0,5.0,44,0.00,,,0.00,weatherlink.com 1.10,2013-05-25 18:31:00,
2013-05-25 14:46:00,56.0,36.0,30.04,WNW,294,1.0,4.0,47,0.00,,,0.00,weatherlink.com 1.10,2013-05-25 18:46:00,
2013-05-25 15:01:00,55.4,33.0,30.04,NNW,343,1.0,5.0,43,0.00,,,0.00,weatherlink.com 1.10,2013-05-25 19:01:00,
2013-05-25 15:16:00,56.2,35.0,30.04,WNW,284,3.0,5.0,46,0.00,,,0.00,weatherlink.com 1.10,2013-05-25 19:16:00,
2013-05-25 15:31:00,57.4,35.0,30.03,WNW,298,3.0,6.0,44,0.00,,,0.00,weatherlink.com 1.10,2013-05-25 19:31:00,
2013-05-25 15:46:00,58.1,36.0,30.02,WNW,290,1.0,7.0,44,0.00,,,0.00,weatherlink.com 1.10,2013-05-25 19:46:00,
2013-05-25 16:01:00,58.7,37.0,30.02,NNW,328,2.0,6.0,45,0.00,,,0.00,weatherlink.com 1.10,2013-05-25 20:01:00,
2013-05-25 16:16:00,59.0,35.0,30.02,NW,325,2.0,5.0,40,0.00,,,0.00,weatherlink.com 1.10,2013-05-25 20:16:00,
2013-05-25 16:31:00,59.0,36.0,30.02,NNW,345,3.0,4.0,43,0.00,,,0.00,weatherlink.com 1.10,2013-05-25 20:31:00,
2013-05-25 16:46:00,58.2,35.0,30.02,NNE,19,4.0,6.0,42,0.00,,,0.00,weatherlink.com 1.10,2013-05-25 20:46:00,
2013-05-25 17:01:00,57.5,34.0,30.02,NW,317,3.0,4.0,42,0.00,,,0.00,weatherlink.com 1.10,2013-05-25 21:01:00,
2013-05-25 17:16:00,57.6,34.0,30.02,North,350,2.0,5.0,42,0.00,,,0.00,weatherlink.com 1.10,2013-05-25 21:16:00,
2013-05-25 17:31:00,57.8,36.0,30.02,WNW,289,3.0,4.0,45,0.00,,,0.00,weatherlink.com 1.10,2013-05-25 21:31:00,
2013-05-25 17:46:00,57.8,35.0,30.02,NW,323,1.0,4.0,43,0.00,,,0.00,weatherlink.com 1.10,2013-05-25 21:46:00,
2013-05-25 18:01:00,57.7,35.0,30.02,NNE,28,1.0,4.0,42,0.00,,,0.00,weatherlink.com 1.10,2013-05-25 22:01:00,
2013-05-25 18:16:00,57.7,36.0,30.02,NNW,327,0.0,4.0,45,0.00,,,0.00,weatherlink.com 1.10,2013-05-25 22:16:00,
2013-05-25 18:31:00,57.5,36.0,30.03,WNW,293,1.0,3.0,45,0.00,,,0.00,weatherlink.com 1.10,2013-05-25 22:31:00,
2013-05-25 18:46:00,57.3,35.0,30.03,NW,325,2.0,4.0,44,0.00,,,0.00,weatherlink.com 1.10,2013-05-25 22:46:00,
2013-05-25 19:01:00,56.9,36.0,30.03,WNW,300,0.0,2.0,45,0.00,,,0.00,weatherlink.com 1.10,2013-05-25 23:01:00,
2013-05-25 19:16:00,56.5,35.0,30.04,NNW,343,2.0,3.0,44,0.00,,,0.00,weatherlink.com 1.10,2013-05-25 23:16:00,
2013-05-25 19:31:00,56.0,36.0,30.04,NW,321,2.0,2.0,48,0.00,,,0.00,weatherlink.com 1.10,2013-05-25 23:31:00,
2013-05-25 19:46:00,55.7,35.0,30.04,NW,317,0.0,2.0,46,0.00,,,0.00,weatherlink.com 1.10,2013-05-25 23:46:00,
2013-05-25 20:01:00,55.0,34.0,30.04,NW,319,1.0,3.0,46,0.00,,,0.00,weatherlink.com 1.10,2013-05-26 00:01:00,
2013-05-25 20:16:00,54.6,36.0,30.04,NW,316,0.0,1.0,49,0.00,,,0.00,weatherlink.com 1.10,2013-05-26 00:16:00,
2013-05-25 20:31:00,53.8,35.0,30.05,WNW,297,0.0,3.0,49,0.00,,,0.00,weatherlink.com 1.10,2013-05-26 00:31:00,
2013-05-25 20:47:00,53.4,35.0,30.06,WNW,298,1.0,3.0,50,0.00,,,0.00,weatherlink.com 1.10,2013-05-26 00:47:00,
2013-05-25 21:02:00,53.0,35.0,30.06,NNW,338,0.0,3.0,51,0.00,,,0.00,weatherlink.com 1.10,2013-05-26 01:02:00,
2013-05-25 21:17:00,52.6,34.0,30.06,NNW,348,0.0,3.0,50,0.00,,,0.00,weatherlink.com 1.10,2013-05-26 01:17:00,
2013-05-25 21:32:00,52.1,35.0,30.07,WNW,284,0.0,2.0,52,0.00,,,0.00,weatherlink.com 1.10,2013-05-26 01:32:00,
2013-05-25 21:47:00,51.3,34.0,30.08,NNW,339,0.0,2.0,53,0.00,,,0.00,weatherlink.com 1.10,2013-05-26 01:47:00,
2013-05-25 22:02:00,50.9,35.0,30.08,NW,316,0.0,1.0,55,0.00,,,0.00,weatherlink.com 1.10,2013-05-26 02:02:00,
2013-05-25 22:17:00,50.3,35.0,30.09,WNW,300,0.0,1.0,56,0.00,,,0.00,weatherlink.com 1.10,2013-05-26 02:17:00,
2013-05-25 22:32:00,49.9,35.0,30.09,WNW,299,1.0,2.0,57,0.00,,,0.00,weatherlink.com 1.10,2013-05-26 02:32:00,
2013-05-25 22:47:00,49.5,35.0,30.09,NW,321,0.0,1.0,58,0.00,,,0.00,weatherlink.com 1.10,2013-05-26 02:47:00,
2013-05-25 23:02:00,49.4,35.0,30.09,NW,317,0.0,1.0,59,0.00,,,0.00,weatherlink.com 1.10,2013-05-26 03:02:00,
2013-05-25 23:17:00,49.3,35.0,30.09,NNW,329,1.0,2.0,58,0.00,,,0.00,weatherlink.com 1.10,2013-05-26 03:17:00,
2013-05-25 23:32:00,49.2,35.0,30.09,NW,304,0.0,2.0,58,0.00,,,0.00,weatherlink.com 1.10,2013-05-26 03:32:00,
2013-05-25 23:47:00,49.4,35.0,30.08,WNW,299,1.0,2.0,58,0.00,,,0.00,weatherlink.com 1.10,2013-05-26 03:47:00,